Time;durP1;ratioP1;P1;durP2;ratioP2;P2;SDS_P1;SDS_P2;PMS_P1;PMS_P2;Temp;Humidity;BMP_temperature;BMP_pressure;BME280_temperature;BME280_humidity;BME280_pressure;Samples;Min_cycle;Max_cycle;Signal;HPM_P1;HPM_P2
2024/01/10 00:02:12;;;;;;;14.53;6.67;;;-4.80;70.70;;;;;;4896089;29;20437;-83
2024/01/10 00:04:42;;;;;;;12.50;7.17;;;-4.80;70.50;;;;;;4897703;29;20716;-80
2024/01/10 00:07:08;;;;;;;12.30;6.20;;;-4.90;70.20;;;;;;4897978;29;20439;-80
2024/01/10 00:09:34;;;;;;;13.30;6.97;;;-4.90;70.10;;;;;;4902482;29;20488;-80
2024/01/10 00:12:00;;;;;;;10.17;6.23;;;-4.90;70.00;;;;;;4898851;29;20428;-81
2024/01/10 00:14:27;;;;;;;12.40;6.70;;;-4.90;70.00;;;;;;4894182;29;20240;-81
2024/01/10 00:16:53;;;;;;;12.63;5.67;;;-4.90;69.70;;;;;;4909728;29;20454;-80
2024/01/10 00:19:19;;;;;;;12.27;6.37;;;-4.90;69.50;;;;;;4898852;29;20403;-79
2024/01/10 00:21:47;;;;;;;11.70;7.50;;;-4.90;68.90;;;;;;4916824;29;20479;-80
2024/01/10 00:24:15;;;;;;;15.20;7.60;;;-4.90;68.80;;;;;;4914365;29;20462;-80
2024/01/10 00:26:44;;;;;;;12.37;6.73;;;-4.80;68.90;;;;;;4872304;29;20476;-82
2024/01/10 00:29:12;;;;;;;14.50;6.63;;;-4.80;68.50;;;;;;4898202;29;20443;-81
2024/01/10 00:31:38;;;;;;;12.80;6.77;;;-4.80;68.10;;;;;;4870858;29;20452;-80
2024/01/10 00:34:03;;;;;;;9.70;5.93;;;-4.80;68.00;;;;;;4908814;29;20419;-81
2024/01/10 00:36:29;;;;;;;10.70;6.93;;;-4.90;68.00;;;;;;4891026;29;20246;-79
2024/01/10 00:38:55;;;;;;;10.83;6.70;;;-4.90;67.70;;;;;;4887004;29;20202;-79
2024/01/10 00:41:20;;;;;;;8.33;5.37;;;-4.90;67.50;;;;;;4894105;29;20226;-80
2024/01/10 00:43:46;;;;;;;13.63;5.90;;;-4.90;67.50;;;;;;4881072;29;20530;-78
2024/01/10 00:46:12;;;;;;;10.93;5.70;;;-5.00;67.40;;;;;;4896090;29;20219;-79
2024/01/10 00:48:37;;;;;;;10.57;6.33;;;-5.00;67.50;;;;;;4880555;29;20648;-79
2024/01/10 00:51:08;;;;;;;10.37;5.20;;;-5.00;67.60;;;;;;4888542;29;20437;-80
2024/01/10 00:53:34;;;;;;;9.27;4.70;;;-5.10;67.60;;;;;;4893179;29;20300;-79
2024/01/10 00:56:00;;;;;;;13.37;6.37;;;-5.10;67.70;;;;;;4901514;29;20795;-79
2024/01/10 00:58:25;;;;;;;9.60;6.10;;;-5.10;67.80;;;;;;4924517;29;20426;-79
2024/01/10 01:00:51;;;;;;;8.30;5.20;;;-5.20;67.70;;;;;;4922444;29;20207;-79
2024/01/10 01:03:17;;;;;;;9.90;5.67;;;-5.20;67.70;;;;;;4919589;29;20203;-79
2024/01/10 01:05:42;;;;;;;7.90;5.13;;;-5.20;67.90;;;;;;4914453;29;20245;-79
2024/01/10 01:08:08;;;;;;;9.37;5.80;;;-5.30;67.90;;;;;;4908368;29;20194;-79
2024/01/10 01:10:34;;;;;;;10.20;5.27;;;-5.30;68.60;;;;;;4908679;29;20474;-80
2024/01/10 01:12:59;;;;;;;10.17;5.93;;;-5.30;69.50;;;;;;4899417;29;20199;-79
2024/01/10 01:15:25;;;;;;;12.67;6.13;;;-5.20;70.10;;;;;;4895140;29;20214;-80
2024/01/10 01:17:50;;;;;;;13.13;7.50;;;-5.20;70.60;;;;;;4924630;29;20721;-80
2024/01/10 01:20:16;;;;;;;12.30;6.70;;;-5.20;71.00;;;;;;4905325;29;20194;-79
2024/01/10 01:22:42;;;;;;;9.93;6.13;;;-5.10;71.20;;;;;;4907365;29;20217;-80
2024/01/10 01:25:08;;;;;;;12.23;6.27;;;-5.20;71.20;;;;;;4916104;29;20339;-80
2024/01/10 01:27:34;;;;;;;12.07;7.40;;;-5.10;71.60;;;;;;4927165;29;20282;-79
2024/01/10 01:30:00;;;;;;;9.47;6.57;;;-5.10;71.90;;;;;;4898532;29;20455;-79
2024/01/10 01:32:25;;;;;;;11.00;7.17;;;-5.10;71.90;;;;;;4898343;29;20655;-79
2024/01/10 01:34:51;;;;;;;9.60;6.00;;;-5.10;71.80;;;;;;4924833;29;20270;-80
2024/01/10 01:37:16;;;;;;;11.17;6.20;;;-5.10;71.80;;;;;;4898764;29;20229;-80
2024/01/10 01:39:42;;;;;;;13.17;6.83;;;-5.20;71.70;;;;;;4920020;29;20229;-80
2024/01/10 01:42:08;;;;;;;9.67;5.50;;;-5.20;71.80;;;;;;4914198;29;20261;-79
2024/01/10 01:44:34;;;;;;;16.57;7.00;;;-5.30;71.80;;;;;;4906505;29;20234;-79
2024/01/10 01:47:00;;;;;;;11.50;6.60;;;-5.30;71.90;;;;;;4922063;29;20720;-79
2024/01/10 01:49:26;;;;;;;8.60;5.70;;;-5.30;72.10;;;;;;4910136;29;20566;-79
2024/01/10 01:51:53;;;;;;;11.40;6.07;;;-5.30;72.30;;;;;;4929538;29;20430;-79
2024/01/10 01:54:19;;;;;;;12.63;5.50;;;-5.40;72.30;;;;;;4899748;29;20420;-78
2024/01/10 01:56:46;;;;;;;10.13;5.60;;;-5.40;72.20;;;;;;4899878;29;20451;-78
2024/01/10 01:59:12;;;;;;;9.43;5.30;;;-5.40;72.30;;;;;;4927164;29;20430;-79
2024/01/10 02:01:39;;;;;;;12.60;5.27;;;-5.40;72.40;;;;;;4921433;29;20446;-79
2024/01/10 02:04:04;;;;;;;11.70;5.47;;;-5.50;72.40;;;;;;4917768;29;20455;-79
2024/01/10 02:06:30;;;;;;;8.70;5.37;;;-5.50;72.60;;;;;;4898810;29;20448;-79
2024/01/10 02:08:57;;;;;;;8.17;5.40;;;-5.50;72.80;;;;;;4919711;29;20553;-80
2024/01/10 02:11:24;;;;;;;8.47;4.90;;;-5.60;72.90;;;;;;4920112;29;20187;-78
2024/01/10 02:13:51;;;;;;;11.23;4.30;;;-5.70;73.20;;;;;;4916351;29;20435;-79
2024/01/10 02:16:17;;;;;;;9.60;4.57;;;-5.80;73.50;;;;;;4923409;29;20462;-79
2024/01/10 02:18:43;;;;;;;6.53;4.20;;;-5.70;74.00;;;;;;4922945;29;20442;-78
2024/01/10 02:21:09;;;;;;;7.97;5.00;;;-5.70;74.00;;;;;;4928657;29;20435;-78
2024/01/10 02:23:34;;;;;;;8.20;5.00;;;-5.70;74.20;;;;;;4919402;29;20229;-79
2024/01/10 02:26:01;;;;;;;8.73;5.63;;;-5.60;74.60;;;;;;4929132;29;20219;-77
2024/01/10 02:28:26;;;;;;;9.23;5.33;;;-5.50;74.50;;;;;;4892103;29;20235;-78
2024/01/10 02:30:54;;;;;;;9.80;5.17;;;-5.50;74.40;;;;;;4929454;29;20412;-78
2024/01/10 02:33:19;;;;;;;10.60;5.10;;;-5.40;74.20;;;;;;4920577;29;20190;-79
2024/01/10 02:35:45;;;;;;;13.80;6.00;;;-5.50;73.70;;;;;;4924778;29;20449;-79
2024/01/10 02:38:11;;;;;;;10.80;6.23;;;-5.50;73.80;;;;;;4909885;29;20190;-77
2024/01/10 02:40:37;;;;;;;10.80;6.13;;;-5.40;74.60;;;;;;4913301;29;20206;-79
2024/01/10 02:43:02;;;;;;;10.03;5.30;;;-5.40;73.60;;;;;;4914719;29;20213;-78
2024/01/10 02:45:28;;;;;;;10.43;6.70;;;-5.50;73.30;;;;;;4913786;29;20739;-80
2024/01/10 02:47:53;;;;;;;14.03;6.07;;;-5.50;73.20;;;;;;4920642;29;20269;-81
2024/01/10 02:50:19;;;;;;;12.77;6.40;;;-5.50;73.30;;;;;;4911876;29;20344;-78
2024/01/10 02:52:45;;;;;;;14.60;5.77;;;-5.50;73.30;;;;;;4913894;29;20523;-79
2024/01/10 02:55:10;;;;;;;8.30;4.63;;;-5.50;73.20;;;;;;4915737;29;20484;-80
2024/01/10 02:57:36;;;;;;;11.97;5.43;;;-5.50;73.20;;;;;;4921367;29;20190;-80
2024/01/10 03:00:04;;;;;;;9.57;5.77;;;-5.60;73.30;;;;;;4904326;29;20198;-81
2024/01/10 03:02:30;;;;;;;10.73;5.47;;;-5.60;73.50;;;;;;4913812;29;20273;-80
2024/01/10 03:04:55;;;;;;;8.63;4.93;;;-5.60;73.80;;;;;;4916134;29;20504;-79
2024/01/10 03:07:21;;;;;;;8.37;4.37;;;-5.60;74.00;;;;;;4918841;29;20183;-79
2024/01/10 03:09:47;;;;;;;10.30;5.90;;;-5.60;74.20;;;;;;4909503;29;20190;-79
2024/01/10 03:12:12;;;;;;;11.53;6.10;;;-5.60;74.60;;;;;;4917049;29;20190;-80
2024/01/10 03:14:38;;;;;;;10.63;6.30;;;-5.60;75.30;;;;;;4923374;29;20213;-81
2024/01/10 03:17:03;;;;;;;10.47;6.13;;;-5.60;75.60;;;;;;4893915;29;20531;-80
2024/01/10 03:19:29;;;;;;;12.97;6.10;;;-5.70;76.00;;;;;;4920241;29;20494;-79
2024/01/10 03:21:55;;;;;;;11.57;6.70;;;-5.60;76.70;;;;;;4912588;29;20194;-80
2024/01/10 03:24:20;;;;;;;13.87;6.20;;;-5.60;77.50;;;;;;4913597;29;20218;-81
2024/01/10 03:26:46;;;;;;;12.53;7.13;;;-5.60;78.30;;;;;;4914357;29;20254;-80
2024/01/10 03:29:11;;;;;;;12.20;6.67;;;-5.60;78.40;;;;;;4922816;29;20195;-78
2024/01/10 03:31:37;;;;;;;15.70;7.33;;;-5.70;79.10;;;;;;4908454;29;20194;-79
2024/01/10 03:34:03;;;;;;;11.30;5.67;;;-5.70;79.70;;;;;;4917774;29;20194;-80
2024/01/10 03:36:29;;;;;;;12.37;7.10;;;-5.70;79.30;;;;;;4914363;29;20210;-79
2024/01/10 03:38:55;;;;;;;13.20;6.13;;;-5.80;79.60;;;;;;4906410;29;20426;-79
2024/01/10 03:41:21;;;;;;;10.10;6.23;;;-5.80;80.30;;;;;;4900336;29;20195;-78
2024/01/10 03:43:47;;;;;;;12.30;6.73;;;-5.80;86.40;;;;;;4899580;29;20547;-77
2024/01/10 03:46:13;;;;;;;12.80;6.33;;;-5.60;96.50;;;;;;4919434;29;20533;-79
2024/01/10 03:48:47;;;;;;;11.77;5.23;;;-5.90;99.90;;;;;;4914291;29;20510;-78
2024/01/10 03:51:14;;;;;;;10.77;5.80;;;-5.90;81.50;;;;;;4908623;29;20830;-80
2024/01/10 03:53:40;;;;;;;7.60;4.80;;;-6.00;82.10;;;;;;4899755;29;20507;-79
2024/01/10 03:56:06;;;;;;;8.17;4.23;;;-6.00;82.50;;;;;;4915388;29;21325;-81
2024/01/10 03:58:32;;;;;;;9.63;5.10;;;-6.00;83.00;;;;;;4911484;29;20460;-80
2024/01/10 04:00:57;;;;;;;9.97;4.50;;;-6.10;83.30;;;;;;4915493;29;20415;-80
2024/01/10 04:03:23;;;;;;;5.73;3.50;;;-6.10;83.90;;;;;;4916228;29;20202;-77
2024/01/10 04:05:49;;;;;;;8.40;4.43;;;-6.10;84.50;;;;;;4912324;29;20513;-78
2024/01/10 04:08:14;;;;;;;7.90;4.50;;;-6.10;85.00;;;;;;4915990;29;20191;-80
2024/01/10 04:10:40;;;;;;;9.37;5.53;;;-6.10;85.40;;;;;;4918373;29;20202;-81
2024/01/10 04:13:05;;;;;;;10.57;5.40;;;-6.10;85.70;;;;;;4918172;29;20617;-79
2024/01/10 04:15:31;;;;;;;11.57;6.07;;;-6.00;86.20;;;;;;4906845;29;20214;-80
2024/01/10 04:17:57;;;;;;;8.70;5.10;;;-6.00;86.60;;;;;;4906403;29;20281;-82
2024/01/10 04:20:22;;;;;;;9.27;5.30;;;-6.00;86.40;;;;;;4899939;29;20203;-79
2024/01/10 04:22:48;;;;;;;13.27;5.63;;;-6.00;86.30;;;;;;4910614;29;20221;-80
2024/01/10 04:25:14;;;;;;;11.90;6.30;;;-6.00;86.40;;;;;;4926241;29;20219;-80
2024/01/10 04:27:40;;;;;;;11.73;6.17;;;-5.90;86.60;;;;;;4924691;29;20233;-79
2024/01/10 04:30:06;;;;;;;9.10;5.00;;;-6.00;86.20;;;;;;4906240;29;20443;-82
2024/01/10 04:32:32;;;;;;;10.90;5.10;;;-5.90;86.20;;;;;;4924904;29;20195;-82
2024/01/10 04:34:57;;;;;;;9.20;4.23;;;-6.00;86.20;;;;;;4913670;29;20433;-81
2024/01/10 04:37:23;;;;;;;12.97;5.20;;;-6.00;86.30;;;;;;4924326;29;20230;-80
2024/01/10 04:39:48;;;;;;;11.13;5.37;;;-6.00;86.70;;;;;;4912244;29;20206;-80
2024/01/10 04:42:15;;;;;;;10.10;5.53;;;-6.00;86.90;;;;;;4913780;29;20573;-81
2024/01/10 04:44:40;;;;;;;11.07;6.13;;;-6.00;87.20;;;;;;4904686;29;20214;-80
2024/01/10 04:47:07;;;;;;;9.70;6.13;;;-5.90;87.90;;;;;;4902356;29;20888;-80
2024/01/10 04:49:33;;;;;;;10.07;6.50;;;-5.90;87.80;;;;;;4918259;29;20206;-80
2024/01/10 04:51:58;;;;;;;11.67;6.67;;;-5.90;88.00;;;;;;4913222;29;20755;-79
2024/01/10 04:54:24;;;;;;;11.97;5.87;;;-5.90;88.20;;;;;;4904237;29;20211;-79
2024/01/10 04:56:50;;;;;;;10.77;5.67;;;-5.90;88.40;;;;;;4927672;29;20294;-79
2024/01/10 04:59:15;;;;;;;13.10;6.80;;;-5.90;88.90;;;;;;4920532;29;20222;-78
2024/01/10 05:01:41;;;;;;;9.50;5.00;;;-6.00;89.60;;;;;;4933873;29;20190;-81
2024/01/10 05:04:07;;;;;;;8.73;5.70;;;-5.90;90.40;;;;;;4921230;29;20222;-80
2024/01/10 05:06:32;;;;;;;11.67;6.80;;;-5.90;91.00;;;;;;4908969;29;20218;-81
2024/01/10 05:09:00;;;;;;;11.90;5.40;;;-5.80;91.50;;;;;;4915001;29;20214;-80
2024/01/10 05:14:16;;;;;;;13.63;7.70;;;-5.70;92.40;;;;;;5496878;23;20635;-81
2024/01/10 05:16:43;;;;;;;12.83;6.33;;;-5.70;92.70;;;;;;4946400;29;20468;-82
2024/01/10 05:19:09;;;;;;;9.67;5.80;;;-5.60;93.10;;;;;;4963973;29;20493;-80
2024/01/10 05:21:35;;;;;;;11.70;5.90;;;-5.60;93.60;;;;;;4931901;29;20449;-81
2024/01/10 05:24:03;;;;;;;12.40;6.60;;;-5.60;94.20;;;;;;4940557;29;20495;-80
2024/01/10 05:26:29;;;;;;;8.87;5.97;;;-5.60;94.40;;;;;;4941146;29;20432;-81
2024/01/10 05:28:55;;;;;;;9.33;6.70;;;-5.60;94.80;;;;;;4923402;29;20433;-79
2024/01/10 05:31:23;;;;;;;8.70;6.20;;;-5.60;95.20;;;;;;4959479;29;20424;-82
2024/01/10 05:33:55;;;;;;;12.80;6.27;;;-5.60;95.60;;;;;;4874467;29;20293;-80
2024/01/10 05:36:24;;;;;;;10.50;6.77;;;-5.60;95.80;;;;;;4939665;29;20450;-81
2024/01/10 05:38:52;;;;;;;8.80;5.77;;;-5.60;95.80;;;;;;4940597;29;20430;-80
2024/01/10 05:41:26;;;;;;;13.43;6.40;;;-5.50;96.00;;;;;;4940562;29;20431;-81
2024/01/10 05:43:55;;;;;;;11.43;6.07;;;-5.60;96.00;;;;;;4915392;29;20451;-81
2024/01/10 05:46:44;;;;;;;10.63;5.70;;;-5.60;96.10;;;;;;4938904;29;20442;-83
2024/01/10 05:49:32;;;;;;;10.77;5.80;;;-5.60;96.10;;;;;;4891733;29;20626;-80
2024/01/10 05:52:03;;;;;;;11.60;5.60;;;-5.60;96.00;;;;;;4921429;29;20447;-80
2024/01/10 05:54:51;;;;;;;12.60;6.97;;;-5.60;95.70;;;;;;4918027;29;20443;-83
2024/01/10 05:57:39;;;;;;;9.80;5.30;;;-5.70;95.10;;;;;;4889230;29;20443;-82
2024/01/10 06:00:09;;;;;;;13.20;7.10;;;-5.60;94.90;;;;;;4906198;29;20469;-81
2024/01/10 06:02:44;;;;;;;12.17;5.93;;;-5.60;95.00;;;;;;4902493;29;20432;-80
2024/01/10 06:08:05;;;;;;;11.30;5.53;;;-5.60;95.40;;;;;;5179887;23;20484;-81
2024/01/10 06:10:31;;;;;;;13.37;7.67;;;-5.60;95.60;;;;;;4969805;29;20410;-81
2024/01/10 06:13:03;;;;;;;10.47;6.40;;;-5.60;96.00;;;;;;4948159;29;20802;-81
2024/01/10 06:15:41;;;;;;;13.57;7.67;;;-5.70;96.50;;;;;;4938156;29;20437;-82
2024/01/10 06:18:09;;;;;;;12.80;8.27;;;-5.60;97.50;;;;;;4937130;29;20441;-80
2024/01/10 06:20:39;;;;;;;13.33;7.30;;;-5.70;98.00;;;;;;4932026;29;20433;-80
2024/01/10 06:23:22;;;;;;;14.53;6.87;;;-5.70;98.70;;;;;;4928606;29;20451;-80
2024/01/10 06:26:03;;;;;;;11.73;6.50;;;-5.80;99.40;;;;;;4941759;29;20473;-82
2024/01/10 06:28:34;;;;;;;12.63;6.07;;;-5.80;99.90;;;;;;4969871;29;20432;-84
2024/01/10 06:31:21;;;;;;;11.30;7.63;;;-5.80;99.90;;;;;;4965274;28;20409;-81
2024/01/10 06:33:47;;;;;;;13.80;6.13;;;-5.80;99.90;;;;;;4963578;28;20444;-85
2024/01/10 07:01:50;;;;;;;16.47;9.70;;;-5.50;99.90;;;;;;4934176;28;20461;-82
2024/01/10 07:04:55;;;;;;;17.10;7.93;;;-5.60;99.90;;;;;;4903539;29;20461;-82
2024/01/10 16:24:48;;;;;;;25.00;10.87;;;-1.20;58.90;;;;;;5762540;23;20492;-83
2024/01/10 17:58:24;;;;;;;21.77;11.80;;;-1.60;65.40;;;;;;5069989;23;20452;-84
2024/01/10 18:01:14;;;;;;;20.50;10.90;;;-1.60;65.60;;;;;;4947842;28;20422;-80
2024/01/10 19:50:24;;;;;;;21.67;13.13;;;-2.50;73.10;;;;;;5400778;23;20479;-79
2024/01/10 19:53:14;;;;;;;26.10;13.83;;;-2.50;73.10;;;;;;4902551;29;20428;-82
2024/01/10 20:10:21;;;;;;;26.00;14.57;;;-2.50;73.30;;;;;;5739345;23;20481;-79
2024/01/10 20:13:04;;;;;;;20.50;13.60;;;-2.50;73.40;;;;;;4897278;29;20430;-81
2024/01/10 20:21:49;;;;;;;21.90;13.10;;;-2.60;73.00;;;;;;5028945;23;20509;-80
2024/01/10 20:24:16;;;;;;;24.93;14.10;;;-2.60;73.40;;;;;;4909258;29;20426;-81
2024/01/10 20:26:44;;;;;;;25.87;13.80;;;-2.70;73.60;;;;;;4879429;29;20448;-80
2024/01/10 20:29:48;;;;;;;25.30;14.87;;;-2.70;73.90;;;;;;4910242;29;20419;-81
2024/01/10 20:47:47;;;;;;;25.03;14.30;;;-2.80;76.60;;;;;;5300857;23;20484;-82
2024/01/10 20:50:15;;;;;;;23.80;13.40;;;-2.80;77.00;;;;;;4943996;29;20403;-79
2024/01/10 20:52:41;;;;;;;25.40;14.93;;;-2.80;77.80;;;;;;4932873;29;20430;-82
2024/01/10 20:55:30;;;;;;;24.80;12.13;;;-2.80;78.00;;;;;;4932459;29;20456;-81
2024/01/10 20:58:01;;;;;;;24.17;13.97;;;-2.80;78.40;;;;;;4937262;28;20420;-83
2024/01/10 21:00:52;;;;;;;21.87;13.63;;;-2.80;78.80;;;;;;4926306;29;20428;-80
2024/01/10 21:03:58;;;;;;;24.90;13.70;;;-2.80;79.20;;;;;;4926107;29;20440;-80
2024/01/10 21:06:47;;;;;;;29.53;14.93;;;-2.80;79.60;;;;;;4953187;28;20512;-79
2024/01/10 21:09:22;;;;;;;24.83;13.30;;;-2.80;80.10;;;;;;4944050;28;20428;-81
2024/01/10 21:11:54;;;;;;;28.07;14.20;;;-2.90;80.50;;;;;;4939391;28;20424;-81
2024/01/10 21:14:47;;;;;;;31.13;15.90;;;-2.90;81.10;;;;;;4918176;29;20423;-82
2024/01/10 21:17:14;;;;;;;26.13;13.97;;;-2.90;81.60;;;;;;4981395;28;20448;-82
2024/01/10 21:19:42;;;;;;;31.93;16.47;;;-2.90;82.00;;;;;;4965658;28;20405;-80
2024/01/10 21:22:33;;;;;;;25.87;13.00;;;-2.90;82.40;;;;;;4940575;29;20421;-79
2024/01/10 21:25:03;;;;;;;26.03;13.77;;;-3.00;82.70;;;;;;4946743;29;20484;-80
2024/01/10 21:30:44;;;;;;;21.47;11.73;;;-3.00;83.50;;;;;;5531237;23;20484;-80
2024/01/10 21:36:18;;;;;;;26.03;13.07;;;-3.10;83.70;;;;;;5056771;23;20479;-79
2024/01/10 21:38:48;;;;;;;26.50;13.00;;;-3.10;83.80;;;;;;4948539;28;20421;-80
2024/01/10 21:41:43;;;;;;;25.43;13.87;;;-3.20;83.70;;;;;;4931408;29;20432;-81
2024/01/10 21:44:16;;;;;;;28.53;14.43;;;-3.20;83.60;;;;;;4974088;28;20421;-80
2024/01/10 21:46:45;;;;;;;25.63;12.90;;;-3.20;83.40;;;;;;5148481;23;20565;-77
2024/01/10 21:49:11;;;;;;;25.27;12.70;;;-3.10;83.30;;;;;;4961612;29;20471;-79
2024/01/10 21:51:38;;;;;;;23.53;12.70;;;-3.20;83.00;;;;;;4916693;29;20425;-80
2024/01/10 21:54:05;;;;;;;30.57;14.73;;;-3.20;83.00;;;;;;4936526;29;20424;-79
2024/01/10 21:56:32;;;;;;;26.80;16.20;;;-3.20;83.40;;;;;;4945090;29;20456;-79
2024/01/10 21:59:00;;;;;;;25.77;14.37;;;-3.10;83.80;;;;;;4942750;29;20413;-79
2024/01/10 22:01:36;;;;;;;28.27;15.23;;;-3.10;84.10;;;;;;4938173;28;20468;-77
2024/01/10 22:04:03;;;;;;;29.80;16.43;;;-3.10;84.70;;;;;;4908432;29;20567;-80
2024/01/10 22:06:30;;;;;;;26.43;15.63;;;-3.10;84.70;;;;;;4932126;29;20817;-77
2024/01/10 22:09:03;;;;;;;31.37;16.97;;;-3.10;84.70;;;;;;4927714;28;20421;-79
2024/01/10 22:11:31;;;;;;;26.83;16.30;;;-3.10;84.70;;;;;;4940573;29;20456;-79
2024/01/10 22:13:58;;;;;;;31.50;17.13;;;-3.20;84.70;;;;;;4917339;29;20444;-78
2024/01/10 22:16:24;;;;;;;23.73;14.37;;;-3.20;84.70;;;;;;4934952;29;20240;-79
2024/01/10 22:18:50;;;;;;;27.50;16.40;;;-3.20;84.70;;;;;;4947698;29;20430;-80
2024/01/10 22:21:19;;;;;;;24.43;15.90;;;-3.20;84.80;;;;;;4957284;28;20386;-82
2024/01/10 22:23:45;;;;;;;26.30;14.83;;;-3.30;84.80;;;;;;4945106;29;20449;-79
2024/01/10 22:26:12;;;;;;;22.83;14.73;;;-3.30;85.00;;;;;;4943499;29;20460;-79
2024/01/10 22:28:38;;;;;;;29.37;16.50;;;-3.30;85.20;;;;;;4950516;29;20248;-77
2024/01/10 22:31:04;;;;;;;28.47;14.20;;;-3.40;85.30;;;;;;4928198;29;20425;-80
2024/01/10 22:33:30;;;;;;;22.50;13.30;;;-3.30;85.60;;;;;;4960181;29;20676;-78
2024/01/10 22:35:58;;;;;;;26.20;13.90;;;-3.40;85.50;;;;;;4955678;29;20445;-80
2024/01/10 22:38:27;;;;;;;25.63;14.80;;;-3.40;85.70;;;;;;4920510;29;20434;-78
2024/01/10 22:40:53;;;;;;;29.17;16.57;;;-3.40;85.70;;;;;;4946417;29;20448;-78
2024/01/10 22:43:19;;;;;;;25.90;15.70;;;-3.40;86.00;;;;;;4906201;29;20447;-78
2024/01/10 22:45:46;;;;;;;28.63;15.20;;;-3.40;86.10;;;;;;4929538;29;20457;-78
2024/01/10 22:48:13;;;;;;;28.07;14.90;;;-3.40;86.10;;;;;;4944990;29;20424;-79
2024/01/10 22:50:40;;;;;;;30.97;15.87;;;-3.40;86.30;;;;;;4920573;29;20428;-80
2024/01/10 22:53:06;;;;;;;26.70;14.67;;;-3.40;86.50;;;;;;4903393;29;20435;-79
2024/01/10 22:55:32;;;;;;;25.70;14.13;;;-3.40;86.30;;;;;;4938024;23;20496;-80
2024/01/10 22:57:58;;;;;;;22.63;14.23;;;-3.40;86.20;;;;;;4952326;28;20201;-78
2024/01/10 23:00:26;;;;;;;32.57;16.27;;;-3.50;86.30;;;;;;4927875;29;20174;-78
2024/01/10 23:02:52;;;;;;;27.47;15.30;;;-3.50;86.50;;;;;;4941070;28;20201;-77
2024/01/10 23:05:30;;;;;;;30.07;17.50;;;-3.40;87.50;;;;;;4936680;29;20479;-79
2024/01/10 23:07:57;;;;;;;28.30;14.37;;;-3.40;86.70;;;;;;4931764;29;20193;-78
2024/01/10 23:10:24;;;;;;;23.10;13.53;;;-3.40;86.50;;;;;;4948962;29;20418;-77
2024/01/10 23:12:50;;;;;;;23.03;13.27;;;-3.40;86.60;;;;;;4945843;29;20453;-78
2024/01/10 23:15:27;;;;;;;25.97;14.43;;;-3.50;86.70;;;;;;4953092;29;20438;-78
2024/01/10 23:17:53;;;;;;;23.60;12.90;;;-3.50;87.00;;;;;;4940841;29;20425;-78
2024/01/10 23:20:20;;;;;;;23.00;13.03;;;-3.50;87.60;;;;;;4942486;28;20436;-79
2024/01/10 23:22:46;;;;;;;23.60;12.57;;;-3.50;88.60;;;;;;4918165;29;20258;-77
2024/01/10 23:25:12;;;;;;;24.00;13.57;;;-3.60;88.10;;;;;;4903397;29;20561;-78
2024/01/10 23:27:41;;;;;;;29.73;15.70;;;-3.70;88.40;;;;;;4906602;29;20431;-77
2024/01/10 23:30:22;;;;;;;22.03;13.90;;;-3.60;88.90;;;;;;4906276;29;20199;-78
2024/01/10 23:32:48;;;;;;;29.97;13.63;;;-3.60;89.20;;;;;;4888333;29;20431;-77
2024/01/10 23:35:14;;;;;;;24.40;12.90;;;-3.60;89.40;;;;;;4935860;29;20218;-77
2024/01/10 23:37:39;;;;;;;20.07;11.83;;;-3.60;89.90;;;;;;4912471;29;20257;-77
2024/01/10 23:40:06;;;;;;;22.80;14.77;;;-3.70;90.10;;;;;;4890247;29;20429;-77
2024/01/10 23:42:32;;;;;;;27.37;15.63;;;-3.70;90.40;;;;;;4932678;29;20232;-77
2024/01/10 23:44:58;;;;;;;31.60;16.77;;;-3.70;90.60;;;;;;4874735;29;20478;-77
2024/01/10 23:47:25;;;;;;;25.57;15.70;;;-3.70;90.90;;;;;;4895428;29;20468;-77
2024/01/10 23:52:36;;;;;;;31.23;16.60;;;-3.60;91.30;;;;;;4949569;29;20472;-77
2024/01/10 23:55:02;;;;;;;30.53;16.70;;;-3.60;91.50;;;;;;4918578;29;20429;-78
2024/01/10 23:57:29;;;;;;;33.57;17.03;;;-3.60;91.70;;;;;;4941389;29;20429;-80
2024/01/10 23:59:55;;;;;;;32.23;17.70;;;-3.50;92.10;;;;;;4926923;29;20675;-79
